createdAt,value
2019-05-15T00:04:03.160Z,5.78
2019-05-15T00:09:08.190Z,5.68
2019-05-15T00:14:12.433Z,5.68
2019-05-15T00:19:18.617Z,5.58
2019-05-15T00:24:22.628Z,5.58
2019-05-15T00:29:28.830Z,5.55
2019-05-15T00:34:32.813Z,5.55
2019-05-15T00:39:38.979Z,5.53
2019-05-15T00:44:42.998Z,5.47
2019-05-15T00:49:48.731Z,5.36
2019-05-15T00:54:53.190Z,5.36
2019-05-15T00:59:58.932Z,5.28
2019-05-15T01:05:03.320Z,5.25
2019-05-15T01:10:09.955Z,5.23
2019-05-15T01:15:13.956Z,5.20
2019-05-15T01:20:18.907Z,5.18
2019-05-15T01:25:23.349Z,5.09
2019-05-15T01:30:28.660Z,4.96
2019-05-15T01:35:33.051Z,4.97
2019-05-15T01:40:38.596Z,4.86
2019-05-15T01:45:42.996Z,4.83
2019-05-15T01:50:49.214Z,4.74
2019-05-15T01:55:53.221Z,4.69
2019-05-15T02:00:58.954Z,4.58
2019-05-15T02:06:03.483Z,4.46
2019-05-15T02:11:09.083Z,4.31
2019-05-15T02:16:13.690Z,4.28
2019-05-15T02:21:18.409Z,4.25
2019-05-15T02:26:22.694Z,4.19
2019-05-15T02:31:29.802Z,4.06
2019-05-15T02:36:32.870Z,3.97
2019-05-15T02:41:39.795Z,3.91
2019-05-15T02:46:43.202Z,3.82
2019-05-15T02:51:49.338Z,3.70
2019-05-15T02:56:53.399Z,3.72
2019-05-15T03:01:59.464Z,3.78
2019-05-15T03:07:03.788Z,3.79
2019-05-15T03:12:09.081Z,3.83
2019-05-15T03:17:13.519Z,3.75
2019-05-15T03:22:19.538Z,3.80
2019-05-15T03:27:23.710Z,3.82
2019-05-15T03:32:40.822Z,3.75
2019-05-15T03:37:34.506Z,3.84
2019-05-15T03:42:39.547Z,3.91
2019-05-15T03:47:44.042Z,3.94
2019-05-15T03:52:49.688Z,3.99
2019-05-15T03:57:54.086Z,4.03
2019-05-15T04:02:59.066Z,4.06
2019-05-15T04:08:03.527Z,4.04
2019-05-15T04:13:09.366Z,4.04
2019-05-15T04:18:13.756Z,4.14
2019-05-15T04:23:23.115Z,4.19
2019-05-15T04:28:29.571Z,4.25
2019-05-15T04:33:33.828Z,4.32
2019-05-15T04:38:39.331Z,4.25
2019-05-15T04:43:44.973Z,4.28
2019-05-15T04:48:50.363Z,4.45
2019-05-15T04:53:55.037Z,4.54
2019-05-15T04:59:00.220Z,4.69
2019-05-15T05:04:04.473Z,4.81
2019-05-15T05:09:09.385Z,4.93
2019-05-15T05:14:13.728Z,5.07
2019-05-15T05:19:19.523Z,5.26
2019-05-15T05:24:23.994Z,5.37
2019-05-15T05:29:28.280Z,5.56
2019-05-15T05:34:32.896Z,5.75
2019-05-15T05:39:39.286Z,5.62
2019-05-15T05:44:43.092Z,5.93
2019-05-15T05:49:48.812Z,6.13
2019-05-15T05:54:53.293Z,6.30
2019-05-15T05:59:58.327Z,6.68
2019-05-15T06:05:02.629Z,6.83
2019-05-15T06:10:08.809Z,6.99
2019-05-15T06:15:13.518Z,7.28
2019-05-15T06:20:18.566Z,7.53
2019-05-15T06:25:22.959Z,7.79
2019-05-15T06:30:30.762Z,7.82
2019-05-15T06:35:35.322Z,7.98
2019-05-15T06:40:39.809Z,8.56
2019-05-15T06:45:44.242Z,9.04
2019-05-15T06:50:49.358Z,9.24
2019-05-15T06:55:53.780Z,9.87
2019-05-15T07:00:59.315Z,10.31
2019-05-15T07:06:03.747Z,10.30
2019-05-15T07:11:08.770Z,10.02
2019-05-15T07:16:13.295Z,9.99
2019-05-15T07:21:20.489Z,10.03
2019-05-15T07:26:23.510Z,10.22
2019-05-15T07:31:28.887Z,10.44
2019-05-15T07:36:33.190Z,10.62
2019-05-15T07:41:39.179Z,10.72
2019-05-15T07:46:44.144Z,10.97
2019-05-15T07:51:49.039Z,10.95
2019-05-15T07:56:53.410Z,10.98
2019-05-15T08:01:58.340Z,11.33
2019-05-15T08:07:02.700Z,11.61
2019-05-15T08:12:08.281Z,11.75
2019-05-15T08:17:12.775Z,11.78
2019-05-15T08:22:18.331Z,11.90
2019-05-15T08:27:23.760Z,12.23
2019-05-15T08:32:28.324Z,12.49
2019-05-15T08:37:32.583Z,12.69
2019-05-15T08:42:41.651Z,12.91
2019-05-15T08:47:43.011Z,12.90
2019-05-15T08:52:48.763Z,13.09
2019-05-15T08:57:55.854Z,13.08
2019-05-15T09:02:59.173Z,13.41
2019-05-15T09:08:03.435Z,13.44
2019-05-15T09:13:09.674Z,13.41
2019-05-15T09:18:16.206Z,13.38
2019-05-15T09:23:20.235Z,13.49
2019-05-15T09:28:24.591Z,13.35
2019-05-15T09:33:28.890Z,13.43
2019-05-15T09:38:33.075Z,13.80
2019-05-15T09:43:38.447Z,13.66
2019-05-15T09:48:43.311Z,13.93
2019-05-15T09:53:48.500Z,14.43
2019-05-15T09:58:52.902Z,14.50
2019-05-15T10:03:57.159Z,14.51
2019-05-15T10:09:01.451Z,14.58
2019-05-15T10:14:05.936Z,14.45
2019-05-15T10:19:10.216Z,14.82
2019-05-15T10:24:14.495Z,15.07
2019-05-15T10:29:18.750Z,14.70
2019-05-15T10:34:22.985Z,14.97
2019-05-15T10:39:28.780Z,14.61
2019-05-15T10:44:33.218Z,14.59
2019-05-15T10:49:38.989Z,14.38
2019-05-15T10:54:43.431Z,14.21
2019-05-15T10:59:47.883Z,14.22
2019-05-15T11:04:52.209Z,14.17
2019-05-15T11:09:58.155Z,14.16
2019-05-15T11:15:02.796Z,14.42
2019-05-15T11:20:08.331Z,14.46
2019-05-15T11:25:13.003Z,14.47
2019-05-15T11:30:19.204Z,14.44
2019-05-15T11:35:23.773Z,14.34
2019-05-15T11:40:28.455Z,14.45
2019-05-15T11:45:32.925Z,14.50
2019-05-15T11:50:40.081Z,15.12
2019-05-15T11:55:43.152Z,16.05
2019-05-15T12:00:49.002Z,17.09
2019-05-15T12:05:53.650Z,18.15
2019-05-15T12:10:59.076Z,17.18
2019-05-15T12:16:03.741Z,15.81
2019-05-15T12:21:07.990Z,15.90
2019-05-15T12:26:12.235Z,16.26
2019-05-15T12:31:16.478Z,16.37
2019-05-15T12:36:45.481Z,18.37
2019-05-15T13:01:51.647Z,15.17
2019-05-15T13:07:12.124Z,15.07
2019-05-15T13:12:01.863Z,14.74
2019-05-15T13:17:06.108Z,14.36
2019-05-15T13:22:17.655Z,14.31
2019-05-15T13:27:18.284Z,14.21
2019-05-15T13:32:22.290Z,13.80
2019-05-15T13:37:30.487Z,13.53
2019-05-15T13:42:32.499Z,13.29
2019-05-15T13:47:38.728Z,13.51
2019-05-15T13:52:42.859Z,13.45
2019-05-15T13:57:48.631Z,13.21
2019-05-15T14:02:53.030Z,13.48
2019-05-15T14:07:58.360Z,13.29
2019-05-15T14:13:02.737Z,13.68
2019-05-15T14:18:08.529Z,13.70
2019-05-15T14:23:12.987Z,13.63
2019-05-15T14:28:18.899Z,13.78
2019-05-15T14:33:24.414Z,14.09
2019-05-15T14:38:29.168Z,14.07
2019-05-15T14:43:33.505Z,14.18
2019-05-15T14:48:38.611Z,14.11
2019-05-15T14:53:43.061Z,14.26
2019-05-15T14:58:48.066Z,14.58
2019-05-15T15:03:52.470Z,14.83
2019-05-15T15:08:59.095Z,15.02
2019-05-15T15:14:02.693Z,14.78
2019-05-15T15:19:06.956Z,14.85
2019-05-15T15:24:11.207Z,14.89
2019-05-15T15:29:15.451Z,14.83
2019-05-15T15:34:20.029Z,14.56
2019-05-15T15:39:24.306Z,14.06
2019-05-15T15:44:28.678Z,13.91
2019-05-15T15:49:32.911Z,13.59
2019-05-15T15:54:39.454Z,13.33
2019-05-15T15:59:43.166Z,13.21
2019-05-15T16:04:48.385Z,13.16
2019-05-15T16:09:52.747Z,13.28
2019-05-15T16:14:57.948Z,13.13
2019-05-15T16:20:02.362Z,13.10
2019-05-15T16:25:09.866Z,12.95
2019-05-15T16:30:13.882Z,12.78
2019-05-15T16:35:18.540Z,12.64
2019-05-15T16:40:22.834Z,12.49
2019-05-15T16:45:28.820Z,12.36
2019-05-15T16:50:33.384Z,12.19
2019-05-15T16:55:37.923Z,12.11
2019-05-15T17:00:42.228Z,12.11
2019-05-15T17:05:47.999Z,11.97
2019-05-15T17:10:52.333Z,12.14
2019-05-15T17:15:58.430Z,12.02
2019-05-15T17:21:02.639Z,12.02
2019-05-15T17:26:08.848Z,11.74
2019-05-15T17:31:13.115Z,11.58
2019-05-15T17:36:18.390Z,11.39
2019-05-15T17:41:24.361Z,11.28
2019-05-15T17:46:29.669Z,11.14
2019-05-15T17:51:34.206Z,10.85
2019-05-15T17:56:39.261Z,10.63
2019-05-15T18:01:43.692Z,10.45
2019-05-15T18:06:48.451Z,10.43
2019-05-15T18:11:52.797Z,10.45
2019-05-15T18:16:58.576Z,10.36
2019-05-15T18:22:03.014Z,10.44
2019-05-15T18:27:08.002Z,10.41
2019-05-15T18:32:12.680Z,10.39
2019-05-15T18:37:18.995Z,10.34
2019-05-15T18:42:23.019Z,10.33
2019-05-15T18:47:27.994Z,10.34
2019-05-15T18:52:33.118Z,10.25
2019-05-15T18:57:38.571Z,10.23
2019-05-15T19:02:43.203Z,10.22
2019-05-15T19:07:48.718Z,10.30
2019-05-15T19:12:53.267Z,10.25
2019-05-15T19:17:58.644Z,10.13
2019-05-15T19:23:03.137Z,10.15
2019-05-15T19:28:08.501Z,10.13
2019-05-15T19:33:13.211Z,10.08
2019-05-15T19:38:18.572Z,10.12
2019-05-15T19:43:22.907Z,10.08
2019-05-15T19:48:27.168Z,10.05
2019-05-15T19:53:31.413Z,10.01
2019-05-15T19:58:35.670Z,10.03
2019-05-15T20:03:49.190Z,10.02
2019-05-15T20:08:47.814Z,10.04
2019-05-15T20:13:51.897Z,10.04
2019-05-15T20:18:58.076Z,9.98
2019-05-15T20:24:02.139Z,10.01
2019-05-15T20:29:08.899Z,9.94
2019-05-15T20:34:12.383Z,9.82
2019-05-15T20:39:16.899Z,9.69
2019-05-15T20:44:21.189Z,9.87
2019-05-15T20:49:25.438Z,9.83
2019-05-15T20:54:30.945Z,9.85
2019-05-15T20:59:35.195Z,9.87
2019-05-15T21:04:40.261Z,9.87
2019-05-15T21:09:44.518Z,9.82
2019-05-15T21:14:48.887Z,9.80
2019-05-15T21:19:53.377Z,9.77
2019-05-15T21:24:57.838Z,9.82
2019-05-15T21:30:02.084Z,9.89
2019-05-15T21:35:09.215Z,9.82
2019-05-15T21:40:13.045Z,9.74
2019-05-15T21:45:18.275Z,9.82
2019-05-15T21:50:22.888Z,9.75
2019-05-15T21:55:28.864Z,9.76
2019-05-15T22:00:38.263Z,9.78
2019-05-15T22:05:42.651Z,9.53
2019-05-15T22:10:48.175Z,9.66
2019-05-15T22:15:52.745Z,9.69
2019-05-15T22:20:58.567Z,9.70
2019-05-15T22:26:02.905Z,9.74
2019-05-15T22:31:08.858Z,9.73
2019-05-15T22:36:13.102Z,9.72
2019-05-15T22:41:19.195Z,9.68
2019-05-15T22:46:23.335Z,9.64
2019-05-15T22:51:28.857Z,9.64
2019-05-15T22:56:33.396Z,9.54
2019-05-15T23:01:38.794Z,9.52
2019-05-15T23:06:43.253Z,9.35
2019-05-15T23:11:48.508Z,9.25
2019-05-15T23:16:52.804Z,9.11
2019-05-15T23:21:59.076Z,9.07
2019-05-15T23:27:03.047Z,9.01
2019-05-15T23:32:08.847Z,8.96
2019-05-15T23:37:13.613Z,8.90
2019-05-15T23:42:18.484Z,8.92
2019-05-15T23:47:22.854Z,8.83
2019-05-15T23:52:27.093Z,8.74
2019-05-15T23:57:31.333Z,8.77
